Kaoma Airport


Codes: FLKO/KMZ
Name: Kaoma Airport
City: Kaoma
Country: Zambia
Elevation: 3670 ft.

Photos at Kaoma Airport


   Photos courtesy of SpottingLog. You can add your own sightings and photos by signing up for a free trial today.



No photos found.

Weather at Kaoma Airport


Time (UTC)DescriptionTempratureWindCloud coverageVisibilityPressureHumidity
21-Feb-2024 03:00Clear Sky18°C4 mph, NE10%10000m1012hPa73%
21-Feb-2024 06:00Clear Sky21°C7 mph, E10%10000m1013hPa66%
21-Feb-2024 09:00Clear Sky30°C7 mph, E7%10000m1011hPa35%
21-Feb-2024 12:00Clear Sky34°C7 mph, E6%10000m1007hPa24%
21-Feb-2024 15:00Clear Sky33°C7 mph, E1%10000m1006hPa26%
21-Feb-2024 18:00Clear Sky23°C4 mph, E8%10000m1008hPa47%
21-Feb-2024 21:00Clear Sky21°C4 mph, E0%10000m1010hPa50%
22-Feb-2024 00:00Clear Sky19°C7 mph, E0%10000m1010hPa53%
22-Feb-2024 03:00Clear Sky18°C4 mph, NE5%10000m1011hPa61%
22-Feb-2024 06:00Clear Sky22°C7 mph, E4%10000m1012hPa57%
22-Feb-2024 09:00Clear Sky32°C9 mph, NE2%10000m1009hPa30%
22-Feb-2024 12:00Clear Sky35°C9 mph, E4%10000m1005hPa18%
22-Feb-2024 15:00Few Clouds33°C9 mph, E19%10000m1004hPa22%
22-Feb-2024 18:00Few Clouds24°C4 mph, E13%10000m1007hPa39%
22-Feb-2024 21:00Clear Sky22°C7 mph, NE4%10000m1009hPa43%
23-Feb-2024 00:00Few Clouds19°C7 mph, NE16%10000m1010hPa50%
23-Feb-2024 03:00Overcast Clouds18°C4 mph, NE98%10000m1011hPa61%
23-Feb-2024 06:00Broken Clouds23°C7 mph, NE55%10000m1012hPa58%
23-Feb-2024 09:00Clear Sky33°C7 mph, NE5%10000m1010hPa26%
23-Feb-2024 12:00Clear Sky36°C7 mph, E10%10000m1006hPa17%
23-Feb-2024 15:00Few Clouds34°C9 mph, E18%10000m1004hPa20%
23-Feb-2024 18:00Few Clouds24°C4 mph, NE15%10000m1008hPa38%
23-Feb-2024 21:00Clear Sky21°C4 mph, N3%10000m1010hPa47%
24-Feb-2024 00:00Clear Sky19°C4 mph, NE4%10000m1012hPa52%
24-Feb-2024 03:00Scattered Clouds17°C2 mph, N27%10000m1013hPa66%
24-Feb-2024 06:00Few Clouds22°C4 mph, N16%10000m1014hPa59%
24-Feb-2024 09:00Clear Sky31°C7 mph, NE5%10000m1012hPa37%
24-Feb-2024 12:00Clear Sky35°C4 mph, E10%10000m1007hPa22%
24-Feb-2024 15:00Clear Sky34°C9 mph, SE7%10000m1006hPa21%
24-Feb-2024 18:00Clear Sky25°C4 mph, NE6%10000m1008hPa36%
24-Feb-2024 21:00Clear Sky23°C4 mph, NE9%10000m1011hPa41%
25-Feb-2024 00:00Scattered Clouds20°C7 mph, NE29%10000m1012hPa49%
25-Feb-2024 03:00Broken Clouds21°C7 mph, N60%10000m1013hPa68%
25-Feb-2024 06:00Scattered Clouds23°C9 mph, N41%10000m1014hPa69%
25-Feb-2024 09:00Clear Sky31°C7 mph, NW7%10000m1012hPa40%
25-Feb-2024 12:00Clear Sky36°C4 mph, NE6%10000m1008hPa24%
25-Feb-2024 15:00Broken Clouds31°C2 mph, SE84%10000m1006hPa35%
25-Feb-2024 18:00Broken Clouds25°C2 mph, SW62%10000m1009hPa46%
25-Feb-2024 21:00Overcast Clouds26°C2 mph, SE98%10000m1010hPa46%
26-Feb-2024 00:00Broken Clouds21°C4 mph, NE76%10000m1011hPa54%